createdAt,value
2023-01-18T00:01:49.484Z,95163.75
2023-01-18T00:04:15.934Z,95161.94
2023-01-18T00:06:42.179Z,95158.06
2023-01-18T00:09:11.220Z,95152.81
2023-01-18T00:11:37.586Z,95153.91
2023-01-18T00:14:04.053Z,95155.00
2023-01-18T00:16:30.350Z,95159.56
2023-01-18T00:18:56.721Z,95153.50
2023-01-18T00:21:23.103Z,95153.00
2023-01-18T00:23:49.412Z,95155.69
2023-01-18T00:26:15.756Z,95153.09
2023-01-18T00:28:42.197Z,95148.88
2023-01-18T00:31:09.095Z,95155.78
2023-01-18T00:33:35.387Z,95148.16
2023-01-18T00:36:02.020Z,95153.75
2023-01-18T00:38:29.350Z,95154.84
2023-01-18T00:40:55.874Z,95152.22
2023-01-18T00:43:22.661Z,95148.06
2023-01-18T00:45:49.026Z,95159.41
2023-01-18T00:48:15.382Z,95162.34
2023-01-18T00:50:44.833Z,95162.38
2023-01-18T00:53:11.168Z,95163.97
2023-01-18T00:55:37.843Z,95168.22
2023-01-18T00:58:04.169Z,95165.59
2023-01-18T01:00:30.724Z,95164.56
2023-01-18T01:02:57.388Z,95169.59
2023-01-18T01:05:23.956Z,95167.75
2023-01-18T01:07:51.059Z,95172.00
2023-01-18T01:10:17.320Z,95168.59
2023-01-18T01:12:46.648Z,95179.16
2023-01-18T01:15:12.941Z,95172.56
2023-01-18T01:17:39.272Z,95175.22
2023-01-18T01:20:06.292Z,95175.75
2023-01-18T01:22:33.091Z,95183.69
2023-01-18T01:24:59.616Z,95177.34
2023-01-18T01:27:25.906Z,95186.03
2023-01-18T01:29:52.230Z,95182.63
2023-01-18T01:32:18.512Z,95186.84
2023-01-18T01:34:44.865Z,95183.16
2023-01-18T01:37:11.154Z,95183.16
2023-01-18T01:39:37.460Z,95186.31
2023-01-18T01:42:04.133Z,95187.09
2023-01-18T01:44:33.197Z,95185.81
2023-01-18T01:46:59.489Z,95185.81
2023-01-18T01:49:25.782Z,95188.94
2023-01-18T01:51:52.103Z,95191.31
2023-01-18T01:54:19.198Z,95194.50
2023-01-18T01:56:45.497Z,95194.75
2023-01-18T01:59:11.812Z,95199.50
2023-01-18T02:01:38.160Z,95207.13
2023-01-18T02:04:05.223Z,95206.88
2023-01-18T02:06:31.693Z,95206.34
2023-01-18T02:08:57.978Z,95213.22
2023-01-18T02:11:25.112Z,95216.88
2023-01-18T02:13:51.367Z,95213.72
2023-01-18T02:16:18.213Z,95219.50
2023-01-18T02:18:44.658Z,95223.47
2023-01-18T02:21:10.973Z,95222.13
2023-01-18T02:23:38.192Z,95222.66
2023-01-18T02:26:04.496Z,95236.34
2023-01-18T02:28:32.210Z,95234.22
2023-01-18T02:30:58.627Z,95237.41
2023-01-18T02:33:25.175Z,95241.31
2023-01-18T02:35:51.455Z,95227.13
2023-01-18T02:38:17.727Z,95233.69
2023-01-18T02:40:44.128Z,95239.47
2023-01-18T02:43:11.257Z,95238.94
2023-01-18T02:45:37.537Z,95245.50
2023-01-18T02:48:03.921Z,95245.22
2023-01-18T02:50:31.885Z,95248.38
2023-01-18T02:55:48.371Z,95252.84
2023-01-18T02:58:15.083Z,95248.88
2023-01-18T03:00:41.751Z,95253.06
2023-01-18T03:03:08.153Z,95244.91
2023-01-18T03:05:34.452Z,95248.88
2023-01-18T03:08:00.758Z,95252.53
2023-01-18T03:10:27.019Z,95246.72
2023-01-18T03:12:54.267Z,95250.69
2023-01-18T03:15:20.605Z,95255.66
2023-01-18T03:17:46.931Z,95250.13
2023-01-18T03:20:13.664Z,95255.09
2023-01-18T03:22:39.955Z,95257.19
2023-01-18T03:25:06.808Z,95257.72
2023-01-18T03:27:33.754Z,95257.44
2023-01-18T03:30:00.084Z,95262.41
2023-01-18T03:32:26.416Z,95257.63
2023-01-18T03:34:53.738Z,95270.28
2023-01-18T03:37:20.091Z,95272.38
2023-01-18T03:39:47.182Z,95271.78
2023-01-18T03:42:13.728Z,95272.31
2023-01-18T03:44:40.021Z,95271.75
2023-01-18T03:47:06.650Z,95277.28
2023-01-18T03:49:32.956Z,95286.47
2023-01-18T03:51:59.283Z,95281.72
2023-01-18T03:54:25.602Z,95285.63
2023-01-18T03:56:51.954Z,95278.25
2023-01-18T03:59:18.731Z,95284.03
2023-01-18T04:01:45.129Z,95280.84
2023-01-18T04:04:11.465Z,95288.19
2023-01-18T04:06:37.783Z,95292.66
2023-01-18T04:09:04.065Z,95300.00
2023-01-18T04:11:31.129Z,95299.47
2023-01-18T04:14:00.459Z,95299.97
2023-01-18T04:16:26.917Z,95308.34
2023-01-18T04:18:53.479Z,95312.03
2023-01-18T04:21:19.797Z,95313.31
2023-01-18T04:23:46.141Z,95320.91
2023-01-18T04:26:12.711Z,95315.91
2023-01-18T04:28:39.020Z,95316.41
2023-01-18T04:31:05.911Z,95320.31
2023-01-18T04:33:32.280Z,95329.53
2023-01-18T04:35:59.464Z,95318.72
2023-01-18T04:38:25.859Z,95319.19
2023-01-18T04:40:52.181Z,95323.91
2023-01-18T04:43:18.508Z,95320.97
2023-01-18T04:45:45.136Z,95325.72
2023-01-18T04:48:11.700Z,95323.56
2023-01-18T04:50:41.432Z,95321.44
2023-01-18T04:53:07.841Z,95325.38
2023-01-18T04:55:34.176Z,95324.28
2023-01-18T04:58:00.440Z,95332.41
2023-01-18T05:00:27.751Z,95325.25
2023-01-18T05:02:54.179Z,95329.75
2023-01-18T05:05:20.492Z,95331.00
2023-01-18T05:07:46.828Z,95327.84
2023-01-18T05:10:13.084Z,95330.72
2023-01-18T05:12:39.440Z,95337.25
2023-01-18T05:15:06.311Z,95341.97
2023-01-18T05:17:32.674Z,95346.66
2023-01-18T05:19:59.696Z,95346.13
2023-01-18T05:22:26.038Z,95344.53
2023-01-18T05:24:52.345Z,95351.63
2023-01-18T05:27:18.714Z,95347.66
2023-01-18T05:29:45.865Z,95361.88
2023-01-18T05:32:12.235Z,95373.47
2023-01-18T05:34:39.280Z,95370.72
2023-01-18T05:37:05.551Z,95379.09
2023-01-18T05:39:32.908Z,95376.91
2023-01-18T05:42:00.245Z,95366.84
2023-01-18T05:44:26.674Z,95374.91
2023-01-18T05:46:53.858Z,95380.38
2023-01-18T05:49:20.151Z,95387.13
2023-01-18T05:51:47.159Z,95379.75
2023-01-18T05:54:13.467Z,95382.09
2023-01-18T05:56:39.732Z,95387.59
2023-01-18T05:59:06.065Z,95392.53
2023-01-18T06:01:36.340Z,95391.44
2023-01-18T06:04:03.448Z,95396.38
2023-01-18T06:06:30.001Z,95403.72
2023-01-18T06:08:56.509Z,95401.56
2023-01-18T06:11:23.347Z,95416.22
2023-01-18T06:13:49.653Z,95410.44
2023-01-18T06:16:16.007Z,95416.16
2023-01-18T06:18:42.273Z,95415.63
2023-01-18T06:21:08.607Z,95413.44
2023-01-18T06:23:35.020Z,95418.19
2023-01-18T06:26:01.819Z,95416.03
2023-01-18T06:28:30.626Z,95414.69
2023-01-18T06:30:57.839Z,95418.56
2023-01-18T06:33:24.125Z,95424.88
2023-01-18T06:35:50.419Z,95423.50
2023-01-18T06:38:16.828Z,95425.34
2023-01-18T06:40:44.065Z,95429.25
2023-01-18T06:43:10.444Z,95432.13
2023-01-18T06:48:20.615Z,95438.88
2023-01-18T06:50:50.428Z,95442.00
2023-01-18T06:53:16.806Z,95434.38
2023-01-18T06:55:43.133Z,95451.38
2023-01-18T06:58:10.459Z,95454.47
2023-01-18T07:00:37.239Z,95452.34
2023-01-18T07:03:03.821Z,95450.75
2023-01-18T07:05:30.174Z,95459.66
2023-01-18T07:07:56.975Z,95468.28
2023-01-18T07:10:23.371Z,95474.97
2023-01-18T07:12:50.196Z,95479.38
2023-01-18T07:15:21.959Z,95492.75
2023-01-18T07:17:49.106Z,95487.03
2023-01-18T07:20:15.789Z,95483.47
2023-01-18T07:22:42.048Z,95492.38
2023-01-18T07:25:08.421Z,95490.69
2023-01-18T07:27:34.724Z,95497.13
2023-01-18T07:30:00.981Z,95487.47
2023-01-18T07:32:27.952Z,95498.31
2023-01-18T07:34:54.224Z,95496.53
2023-01-18T07:37:20.570Z,95502.88
2023-01-18T07:39:46.847Z,95503.16
2023-01-18T07:42:13.136Z,95503.97
2023-01-18T07:44:39.530Z,95504.47
2023-01-18T07:47:05.857Z,95508.41
2023-01-18T07:49:32.531Z,95513.72
2023-01-18T07:51:58.839Z,95520.28
2023-01-18T07:54:28.030Z,95527.09
2023-01-18T07:56:54.554Z,95529.16
2023-01-18T07:59:21.347Z,95533.88
2023-01-18T08:01:47.739Z,95544.16
2023-01-18T08:04:14.098Z,95546.75
2023-01-18T08:06:40.405Z,95543.00
2023-01-18T08:09:06.788Z,95550.59
2023-01-18T08:11:33.892Z,95550.03
2023-01-18T08:14:00.634Z,95554.72
2023-01-18T08:16:26.945Z,95559.66
2023-01-18T08:18:53.494Z,95552.94
2023-01-18T08:21:19.891Z,95561.03
2023-01-18T08:23:46.286Z,95549.81
2023-01-18T08:26:13.492Z,95562.44
2023-01-18T08:28:39.743Z,95571.06
2023-01-18T08:31:10.778Z,95576.31
2023-01-18T08:33:39.155Z,95577.81
2023-01-18T08:36:05.845Z,95575.56
2023-01-18T08:38:32.120Z,95575.47
2023-01-18T08:40:58.393Z,95578.81
2023-01-18T08:43:24.632Z,95576.81
2023-01-18T08:45:50.924Z,95581.22
2023-01-18T08:48:17.281Z,95587.19
2023-01-18T08:50:43.679Z,95590.00
2023-01-18T08:53:09.981Z,95589.88
2023-01-18T08:55:36.293Z,95595.63
2023-01-18T08:58:02.781Z,95593.13
2023-01-18T09:00:29.103Z,95593.31
2023-01-18T09:02:55.507Z,95596.19
2023-01-18T09:05:22.955Z,95599.34
2023-01-18T09:07:50.342Z,95594.53
2023-01-18T09:10:16.603Z,95600.56
2023-01-18T09:12:44.099Z,95610.84
2023-01-18T09:15:11.361Z,95613.41
2023-01-18T09:17:37.712Z,95614.94
2023-01-18T09:20:04.150Z,95608.97
2023-01-18T09:22:30.410Z,95616.81
2023-01-18T09:24:56.685Z,95625.69
2023-01-18T09:27:23.008Z,95624.47
2023-01-18T09:29:49.997Z,95631.28
2023-01-18T09:32:16.311Z,95631.22
2023-01-18T09:34:42.594Z,95631.13
2023-01-18T09:37:08.853Z,95627.88
2023-01-18T09:39:46.666Z,95639.03
2023-01-18T09:42:17.609Z,95639.53
2023-01-18T09:44:43.866Z,95638.44
2023-01-18T09:47:12.998Z,95641.69
2023-01-18T09:49:39.291Z,95645.50
2023-01-18T09:52:05.665Z,95648.94
2023-01-18T09:54:31.962Z,95655.28
2023-01-18T09:56:58.264Z,95657.16
2023-01-18T09:59:25.355Z,95655.06
2023-01-18T10:01:53.271Z,95653.25
2023-01-18T10:04:21.401Z,95654.66
2023-01-18T10:06:47.784Z,95664.72
2023-01-18T10:09:14.225Z,95659.69
2023-01-18T10:11:40.514Z,95665.31
2023-01-18T10:14:06.769Z,95670.13
2023-01-18T10:16:33.371Z,95665.88
2023-01-18T10:19:00.271Z,95665.38
2023-01-18T10:21:26.590Z,95668.03
2023-01-18T10:23:52.917Z,95656.59
2023-01-18T10:26:19.252Z,95663.78
2023-01-18T10:28:45.936Z,95659.25
2023-01-18T10:31:12.450Z,95658.47
2023-01-18T10:33:38.880Z,95663.78
2023-01-18T10:36:05.115Z,95668.84
2023-01-18T10:38:31.467Z,95668.84
2023-01-18T10:40:57.801Z,95661.34
2023-01-18T10:43:24.699Z,95671.34
2023-01-18T10:45:51.093Z,95677.00
2023-01-18T10:48:17.487Z,95668.56
2023-01-18T10:50:43.835Z,95673.66
2023-01-18T10:53:10.162Z,95676.34
2023-01-18T10:55:36.457Z,95673.09
2023-01-18T10:58:02.760Z,95680.03
2023-01-18T11:00:29.032Z,95677.38
2023-01-18T11:02:55.390Z,95686.47
2023-01-18T11:05:22.377Z,95679.88
2023-01-18T11:07:48.661Z,95688.47
2023-01-18T11:10:14.961Z,95693.56
2023-01-18T11:12:41.315Z,95688.94
2023-01-18T11:15:07.674Z,95698.69
2023-01-18T11:17:34.001Z,95702.91
2023-01-18T11:20:00.386Z,95696.81
2023-01-18T11:22:26.644Z,95697.31
2023-01-18T11:24:53.305Z,95704.72
2023-01-18T11:27:21.770Z,95702.34
2023-01-18T11:29:48.078Z,95701.25
2023-01-18T11:32:14.359Z,95701.25
2023-01-18T11:34:40.832Z,95701.25
2023-01-18T11:37:07.879Z,95706.09
2023-01-18T11:39:34.199Z,95711.41
2023-01-18T11:42:00.783Z,95709.25
2023-01-18T11:44:27.103Z,95713.97
2023-01-18T11:46:53.715Z,95715.28
2023-01-18T11:49:20.300Z,95711.81
2023-01-18T11:51:46.573Z,95716.66
2023-01-18T11:54:12.801Z,95709.75
2023-01-18T11:56:39.849Z,95712.72
2023-01-18T11:59:06.251Z,95701.06
2023-01-18T12:01:33.672Z,95710.94
2023-01-18T12:04:00.061Z,95708.56
2023-01-18T12:06:26.434Z,95716.88
2023-01-18T12:08:56.800Z,95708.06
2023-01-18T12:11:23.666Z,95714.50
2023-01-18T12:13:50.296Z,95718.53
2023-01-18T12:16:16.733Z,95723.88
2023-01-18T12:18:43.710Z,95718.06
2023-01-18T12:21:09.985Z,95730.13
2023-01-18T12:23:36.428Z,95722.41
2023-01-18T12:26:12.313Z,95739.03
2023-01-18T12:28:39.055Z,95736.47
2023-01-18T12:31:05.430Z,95743.97
2023-01-18T12:33:43.106Z,95745.34
2023-01-18T12:36:10.147Z,95744.06
2023-01-18T12:38:36.457Z,95745.94
2023-01-18T12:43:47.521Z,95745.72
2023-01-18T12:46:13.843Z,95739.91
2023-01-18T12:48:40.213Z,95756.19
2023-01-18T12:51:07.621Z,95756.19
2023-01-18T12:53:34.116Z,95759.94
2023-01-18T12:56:01.548Z,95758.66
2023-01-18T12:58:29.481Z,95762.44
2023-01-18T13:00:55.831Z,95768.81
2023-01-18T13:03:24.958Z,95769.94
2023-01-18T13:05:51.413Z,95767.78
2023-01-18T13:08:17.828Z,95770.00
2023-01-18T13:10:44.102Z,95770.75
2023-01-18T13:13:14.431Z,95762.34
2023-01-18T13:15:40.800Z,95774.72
2023-01-18T13:18:07.215Z,95771.50
2023-01-18T13:20:33.530Z,95764.78
2023-01-18T13:22:59.960Z,95778.13
2023-01-18T13:25:26.265Z,95781.09
2023-01-18T13:27:52.662Z,95785.63
2023-01-18T13:30:18.941Z,95779.50
2023-01-18T13:32:45.215Z,95792.03
2023-01-18T13:35:20.178Z,95790.72
2023-01-18T13:37:47.099Z,95795.56
2023-01-18T13:40:13.400Z,95800.19
2023-01-18T13:42:39.804Z,95795.75
2023-01-18T13:45:06.452Z,95804.03
2023-01-18T13:47:34.324Z,95803.53
2023-01-18T13:50:00.814Z,95812.59
2023-01-18T13:52:27.310Z,95813.69
2023-01-18T13:54:53.653Z,95817.16
2023-01-18T13:57:19.937Z,95816.34
2023-01-18T13:59:46.210Z,95818.22
2023-01-18T14:02:16.784Z,95827.81
2023-01-18T14:04:43.105Z,95834.72
2023-01-18T14:07:09.437Z,95838.38
2023-01-18T14:09:37.910Z,95838.22
2023-01-18T14:12:04.333Z,95843.09
2023-01-18T14:14:30.618Z,95853.81
2023-01-18T14:16:56.904Z,95860.41
2023-01-18T14:19:23.168Z,95859.97
2023-01-18T14:21:49.448Z,95870.72
2023-01-18T14:24:15.732Z,95866.41
2023-01-18T14:26:42.950Z,95866.28
2023-01-18T14:29:09.239Z,95872.59
2023-01-18T14:31:36.459Z,95875.56
2023-01-18T14:34:02.822Z,95878.53
2023-01-18T14:36:29.097Z,95878.34
2023-01-18T14:38:55.526Z,95873.91
2023-01-18T14:41:24.689Z,95880.09
2023-01-18T14:43:50.994Z,95882.06
2023-01-18T14:46:17.401Z,95874.16
2023-01-18T14:48:43.698Z,95880.69
2023-01-18T14:51:10.983Z,95884.22
2023-01-18T14:53:37.363Z,95884.03
2023-01-18T14:56:03.697Z,95883.56
2023-01-18T14:58:32.149Z,95891.06
2023-01-18T15:00:59.188Z,95895.38
2023-01-18T15:03:25.916Z,95897.03
2023-01-18T15:05:52.373Z,95896.34
2023-01-18T15:08:18.612Z,95898.78
2023-01-18T15:10:45.921Z,95905.81
2023-01-18T15:13:12.368Z,95904.81
2023-01-18T15:15:39.589Z,95912.56
2023-01-18T15:18:05.858Z,95906.22
2023-01-18T15:20:32.168Z,95915.38
2023-01-18T15:22:59.704Z,95914.69
2023-01-18T15:25:26.876Z,95916.31
2023-01-18T15:27:53.173Z,95920.16
2023-01-18T15:30:19.459Z,95927.16
2023-01-18T15:32:46.128Z,95927.22
2023-01-18T15:35:12.783Z,95931.53
2023-01-18T15:37:39.048Z,95951.88
2023-01-18T15:40:05.356Z,95946.88
2023-01-18T15:42:31.799Z,95946.66
2023-01-18T15:45:01.104Z,95944.06
2023-01-18T15:47:27.394Z,95949.97
2023-01-18T15:49:53.790Z,95956.94
2023-01-18T15:52:20.137Z,95962.31
2023-01-18T15:54:46.711Z,95970.09
2023-01-18T15:57:13.054Z,95968.00
2023-01-18T15:59:39.791Z,95965.13
2023-01-18T16:02:06.695Z,95963.03
2023-01-18T16:04:33.108Z,95976.13
2023-01-18T16:06:59.887Z,95979.34
2023-01-18T16:09:26.226Z,95981.50
2023-01-18T16:11:52.517Z,95985.19
2023-01-18T16:14:18.853Z,95996.69
2023-01-18T16:16:45.202Z,95989.50
2023-01-18T16:19:11.831Z,96001.44
2023-01-18T16:21:38.085Z,96002.19
2023-01-18T16:24:04.509Z,96007.16
2023-01-18T16:26:31.175Z,96011.88
2023-01-18T16:28:57.452Z,96004.25
2023-01-18T16:31:23.743Z,96006.72
2023-01-18T16:33:50.085Z,96011.34
2023-01-18T16:36:16.768Z,96007.25
2023-01-18T16:38:43.694Z,96013.81
2023-01-18T16:41:09.929Z,96013.44
2023-01-18T16:43:36.219Z,96024.91
2023-01-18T16:46:02.626Z,96025.72
2023-01-18T16:48:28.981Z,96028.16
2023-01-18T16:50:58.279Z,96029.78
2023-01-18T16:53:24.530Z,96036.78
2023-01-18T16:55:51.388Z,96042.19
2023-01-18T16:58:17.709Z,96037.13
2023-01-18T17:00:44.461Z,96041.66
2023-01-18T17:03:14.447Z,96049.66
2023-01-18T17:05:41.686Z,96045.44
2023-01-18T17:08:08.826Z,96066.22
2023-01-18T17:10:35.066Z,96065.22
2023-01-18T17:13:01.924Z,96067.66
2023-01-18T17:15:28.798Z,96070.88
2023-01-18T17:17:55.073Z,96079.47
2023-01-18T17:20:21.310Z,96076.56
2023-01-18T17:22:50.601Z,96076.06
2023-01-18T17:25:16.966Z,96079.28
2023-01-18T17:27:43.927Z,96086.78
2023-01-18T17:30:10.369Z,96089.72
2023-01-18T17:32:39.149Z,96089.50
2023-01-18T17:35:05.465Z,96096.69
2023-01-18T17:37:33.621Z,96107.91
2023-01-18T17:40:14.203Z,96099.13
2023-01-18T17:42:43.799Z,96102.38
2023-01-18T17:45:10.108Z,96103.41
2023-01-18T17:47:36.509Z,96099.19
2023-01-18T17:50:03.421Z,96100.25
2023-01-18T17:52:29.775Z,96104.78
2023-01-18T17:54:56.317Z,96110.41
2023-01-18T17:57:22.853Z,96103.47
2023-01-18T17:59:49.748Z,96111.47
2023-01-18T18:02:16.425Z,96109.09
2023-01-18T18:04:42.761Z,96109.91
2023-01-18T18:07:09.023Z,96105.34
2023-01-18T18:09:38.345Z,96112.25
2023-01-18T18:12:04.766Z,96113.63
2023-01-18T18:14:31.474Z,96122.34
2023-01-18T18:17:00.132Z,96123.63
2023-01-18T18:19:26.429Z,96128.03
2023-01-18T18:21:55.829Z,96125.75
2023-01-18T18:24:22.112Z,96130.72
2023-01-18T18:26:48.956Z,96143.09
2023-01-18T18:29:15.269Z,96138.44
2023-01-18T18:31:44.502Z,96135.97
2023-01-18T18:34:13.907Z,96138.78
2023-01-18T18:36:40.231Z,96139.75
2023-01-18T18:39:06.804Z,96142.28
2023-01-18T18:41:33.359Z,96133.63
2023-01-18T18:43:59.632Z,96134.88
2023-01-18T18:46:26.897Z,96139.84
2023-01-18T18:48:53.222Z,96141.84
2023-01-18T18:51:19.625Z,96155.31
2023-01-18T18:53:45.943Z,96155.25
2023-01-18T18:56:12.296Z,96161.31
2023-01-18T18:58:39.330Z,96164.41
2023-01-18T19:01:05.900Z,96162.19
2023-01-18T19:03:32.286Z,96167.94
2023-01-18T19:05:58.739Z,96166.78
2023-01-18T19:08:25.318Z,96172.06
2023-01-18T19:10:51.883Z,96155.50
2023-01-18T19:13:18.329Z,96180.41
2023-01-18T19:15:45.331Z,96177.13
2023-01-18T19:18:12.163Z,96174.16
2023-01-18T19:20:38.815Z,96177.94
2023-01-18T19:23:05.101Z,96174.75
2023-01-18T19:25:31.394Z,96167.34
2023-01-18T19:27:57.778Z,96166.81
2023-01-18T19:30:24.212Z,96182.34
2023-01-18T19:32:51.456Z,96186.97
2023-01-18T19:35:18.313Z,96186.56
2023-01-18T19:37:44.671Z,96186.94
2023-01-18T19:40:11.198Z,96192.06
2023-01-18T19:42:38.195Z,96191.56
2023-01-18T19:45:05.009Z,96193.72
2023-01-18T19:47:31.415Z,96184.91
2023-01-18T19:49:57.767Z,96188.94
2023-01-18T19:52:24.041Z,96189.31
2023-01-18T19:54:50.377Z,96194.22
2023-01-18T19:57:17.008Z,96202.31
2023-01-18T19:59:43.364Z,96198.91
2023-01-18T20:02:09.862Z,96196.31
2023-01-18T20:04:36.768Z,96200.91
2023-01-18T20:07:03.228Z,96199.69
2023-01-18T20:09:42.344Z,96203.50
2023-01-18T20:12:09.614Z,96200.41
2023-01-18T20:14:41.317Z,96205.00
2023-01-18T20:17:08.366Z,96202.69
2023-01-18T20:19:34.868Z,96199.00
2023-01-18T20:22:01.164Z,96204.41
2023-01-18T20:24:28.303Z,96207.06
2023-01-18T20:26:57.679Z,96208.19
2023-01-18T20:29:25.872Z,96210.84
2023-01-18T20:31:52.537Z,96212.97
2023-01-18T20:34:19.872Z,96201.66
2023-01-18T20:36:46.125Z,96209.53
2023-01-18T20:39:13.311Z,96212.06
2023-01-18T20:41:39.570Z,96223.19
2023-01-18T20:44:05.853Z,96222.56
2023-01-18T20:46:32.124Z,96223.50
2023-01-18T20:48:59.037Z,96227.91
2023-01-18T20:51:26.232Z,96242.19
2023-01-18T20:53:53.351Z,96238.09
2023-01-18T20:56:34.602Z,96248.44
2023-01-18T20:59:01.062Z,96257.69
2023-01-18T21:01:31.107Z,96257.59
2023-01-18T21:03:58.264Z,96244.75
2023-01-18T21:06:24.709Z,96249.00
2023-01-18T21:08:51.210Z,96246.34
2023-01-18T21:11:18.154Z,96247.69
2023-01-18T21:13:44.459Z,96254.94
2023-01-18T21:16:10.843Z,96257.91
2023-01-18T21:18:37.523Z,96255.78
2023-01-18T21:21:03.897Z,96256.66
2023-01-18T21:23:30.220Z,96260.72
2023-01-18T21:25:56.601Z,96277.63
2023-01-18T21:28:23.963Z,96268.91
2023-01-18T21:30:50.893Z,96266.81
2023-01-18T21:33:17.219Z,96270.84
2023-01-18T21:35:43.596Z,96271.41
2023-01-18T21:38:09.982Z,96269.31
2023-01-18T21:40:36.496Z,96269.88
2023-01-18T21:43:03.020Z,96273.72
2023-01-18T21:45:29.392Z,96273.25
2023-01-18T21:47:55.754Z,96277.34
2023-01-18T21:50:22.202Z,96280.09
2023-01-18T21:52:49.117Z,96288.22
2023-01-18T21:55:16.430Z,96280.13
2023-01-18T21:57:42.948Z,96278.22
2023-01-18T22:00:09.287Z,96288.00
2023-01-18T22:02:35.682Z,96291.88
2023-01-18T22:05:07.908Z,96302.66
2023-01-18T22:07:34.290Z,96300.88
2023-01-18T22:10:06.041Z,96312.41
2023-01-18T22:12:33.569Z,96312.22
2023-01-18T22:15:00.211Z,96316.53
2023-01-18T22:17:26.577Z,96308.38
2023-01-18T22:19:53.353Z,96305.50
2023-01-18T22:22:19.819Z,96305.28
2023-01-18T22:24:46.214Z,96315.41
2023-01-18T22:27:12.431Z,96311.50
2023-01-18T22:29:38.659Z,96314.38
2023-01-18T22:32:05.116Z,96325.31
2023-01-18T22:34:31.427Z,96332.50
2023-01-18T22:36:57.886Z,96333.56
2023-01-18T22:39:24.588Z,96334.88
2023-01-18T22:41:52.329Z,96343.13
2023-01-18T22:44:18.633Z,96338.59
2023-01-18T22:46:44.907Z,96343.13
2023-01-18T22:49:11.265Z,96348.41
2023-01-18T22:51:38.320Z,96348.38
2023-01-18T22:54:05.361Z,96351.78
2023-01-18T22:56:31.813Z,96344.59
2023-01-18T22:58:58.680Z,96341.66
2023-01-18T23:01:28.275Z,96349.31
2023-01-18T23:03:54.879Z,96351.66
2023-01-18T23:06:21.259Z,96352.13
2023-01-18T23:08:48.447Z,96356.34
2023-01-18T23:11:14.727Z,96354.19
2023-01-18T23:13:41.075Z,96345.13
2023-01-18T23:16:07.788Z,96345.88
2023-01-18T23:18:34.073Z,96343.69
2023-01-18T23:21:01.606Z,96349.50
2023-01-18T23:23:28.780Z,96347.31
2023-01-18T23:25:55.987Z,96332.91
2023-01-18T23:28:22.259Z,96349.03
2023-01-18T23:30:48.684Z,96345.00
2023-01-18T23:33:15.856Z,96347.06
2023-01-18T23:35:42.108Z,96347.53
2023-01-18T23:38:08.746Z,96346.16
2023-01-18T23:40:35.037Z,96346.38
2023-01-18T23:43:01.306Z,96353.72
2023-01-18T23:45:29.083Z,96356.53
2023-01-18T23:47:55.988Z,96356.75
2023-01-18T23:50:22.274Z,96358.81
2023-01-18T23:52:48.558Z,96361.66
2023-01-18T23:55:16.010Z,96361.84
2023-01-18T23:57:42.307Z,96362.84
